sensor_id;sensor_type;location;lat;lon;timestamp;pressure;altitude;pressure_sealevel;temperature;humidity
49973;BME280;65693;49.798;10.968;2023-05-01T00:01:04;98316.31;;;13.87;48.52
49973;BME280;65693;49.798;10.968;2023-05-01T00:03:30;98303.97;;;13.86;48.54
49973;BME280;65693;49.798;10.968;2023-05-01T00:06:00;98311.09;;;13.86;48.52
49973;BME280;65693;49.798;10.968;2023-05-01T00:08:27;98305.78;;;13.86;48.62
49973;BME280;65693;49.798;10.968;2023-05-01T00:10:53;98303.13;;;13.86;48.60
49973;BME280;65693;49.798;10.968;2023-05-01T00:13:21;98298.03;;;13.83;48.57
49973;BME280;65693;49.798;10.968;2023-05-01T00:15:48;98293.66;;;13.82;48.58
49973;BME280;65693;49.798;10.968;2023-05-01T00:18:15;98296.44;;;13.80;48.64
49973;BME280;65693;49.798;10.968;2023-05-01T00:20:41;98287.59;;;13.79;48.62
49973;BME280;65693;49.798;10.968;2023-05-01T00:23:08;98288.56;;;13.78;48.58
49973;BME280;65693;49.798;10.968;2023-05-01T00:25:36;98285.91;;;13.78;48.58
49973;BME280;65693;49.798;10.968;2023-05-01T00:28:03;98285.06;;;13.78;48.58
49973;BME280;65693;49.798;10.968;2023-05-01T00:30:31;98288.69;;;13.77;48.76
49973;BME280;65693;49.798;10.968;2023-05-01T00:32:58;98281.66;;;13.76;48.56
49973;BME280;65693;49.798;10.968;2023-05-01T00:35:26;98276.47;;;13.74;48.67
49973;BME280;65693;49.798;10.968;2023-05-01T00:37:52;98275.59;;;13.74;48.71
49973;BME280;65693;49.798;10.968;2023-05-01T00:40:19;98277.44;;;13.73;48.69
49973;BME280;65693;49.798;10.968;2023-05-01T00:42:45;98272.09;;;13.73;48.54
49973;BME280;65693;49.798;10.968;2023-05-01T00:45:11;98270.34;;;13.72;48.61
49973;BME280;65693;49.798;10.968;2023-05-01T00:47:39;98262.50;;;13.71;48.67
49973;BME280;65693;49.798;10.968;2023-05-01T00:50:07;98255.47;;;13.70;48.70
49973;BME280;65693;49.798;10.968;2023-05-01T00:52:34;98258.13;;;13.70;48.61
49973;BME280;65693;49.798;10.968;2023-05-01T00:55:01;98257.41;;;13.68;48.53
49973;BME280;65693;49.798;10.968;2023-05-01T00:57:29;98257.41;;;13.68;48.73
49973;BME280;65693;49.798;10.968;2023-05-01T00:59:56;98253.78;;;13.69;48.55
49973;BME280;65693;49.798;10.968;2023-05-01T01:02:23;98249.41;;;13.68;48.63
49973;BME280;65693;49.798;10.968;2023-05-01T01:04:50;98246.84;;;13.66;48.54
49973;BME280;65693;49.798;10.968;2023-05-01T01:07:20;98247.81;;;13.65;48.62
49973;BME280;65693;49.798;10.968;2023-05-01T01:09:56;98240.81;;;13.64;48.62
49973;BME280;65693;49.798;10.968;2023-05-01T01:12:27;98241.78;;;13.63;48.57
49973;BME280;65693;49.798;10.968;2023-05-01T01:15:00;98245.25;;;13.63;48.58
49973;BME280;65693;49.798;10.968;2023-05-01T01:17:31;98237.41;;;13.62;48.62
49973;BME280;65693;49.798;10.968;2023-05-01T01:20:20;98235.72;;;13.61;48.67
49973;BME280;65693;49.798;10.968;2023-05-01T01:22:53;98233.16;;;13.59;48.50
49973;BME280;65693;49.798;10.968;2023-05-01T01:25:49;98225.16;;;13.59;48.56
49973;BME280;65693;49.798;10.968;2023-05-01T01:28:49;98229.66;;;13.59;48.49
49973;BME280;65693;49.798;10.968;2023-05-01T01:31:28;98234.13;;;13.58;48.57
49973;BME280;65693;49.798;10.968;2023-05-01T01:34:03;98221.88;;;13.56;48.58
49973;BME280;65693;49.798;10.968;2023-05-01T01:36:41;98227.22;;;13.56;48.73
49973;BME280;65693;49.798;10.968;2023-05-01T01:39:13;98228.06;;;13.56;48.54
49973;BME280;65693;49.798;10.968;2023-05-01T01:41:46;98227.34;;;13.54;48.55
49973;BME280;65693;49.798;10.968;2023-05-01T01:44:17;98222.84;;;13.55;48.35
49973;BME280;65693;49.798;10.968;2023-05-01T01:46:47;98220.31;;;13.53;48.43
49973;BME280;65693;49.798;10.968;2023-05-01T01:49:18;98222.03;;;13.54;48.51
49973;BME280;65693;49.798;10.968;2023-05-01T01:51:46;98223.94;;;13.52;48.54
49973;BME280;65693;49.798;10.968;2023-05-01T01:54:14;98214.13;;;13.52;48.61
49973;BME280;65693;49.798;10.968;2023-05-01T01:56:45;98216.06;;;13.50;48.43
49973;BME280;65693;49.798;10.968;2023-05-01T01:59:14;98212.56;;;13.50;48.59
49973;BME280;65693;49.798;10.968;2023-05-01T02:01:42;98208.22;;;13.49;48.51
49973;BME280;65693;49.798;10.968;2023-05-01T02:04:10;98210.13;;;13.47;48.58
49973;BME280;65693;49.798;10.968;2023-05-01T02:06:39;98209.16;;;13.48;48.55
49973;BME280;65693;49.798;10.968;2023-05-01T02:09:07;98206.50;;;13.48;48.50
49973;BME280;65693;49.798;10.968;2023-05-01T02:11:35;98204.69;;;13.48;48.52
49973;BME280;65693;49.798;10.968;2023-05-01T02:14:04;98195.84;;;13.48;48.05
49973;BME280;65693;49.798;10.968;2023-05-01T02:16:33;98194.28;;;13.45;48.52
49973;BME280;65693;49.798;10.968;2023-05-01T02:19:02;98190.75;;;13.45;48.51
49973;BME280;65693;49.798;10.968;2023-05-01T02:21:29;98192.59;;;13.44;48.52
49973;BME280;65693;49.798;10.968;2023-05-01T02:23:59;98188.22;;;13.43;48.59
49973;BME280;65693;49.798;10.968;2023-05-01T02:26:27;98189.06;;;13.44;48.62
49973;BME280;65693;49.798;10.968;2023-05-01T02:28:54;98186.53;;;13.42;48.46
49973;BME280;65693;49.798;10.968;2023-05-01T02:31:21;98183.97;;;13.41;48.63
49973;BME280;65693;49.798;10.968;2023-05-01T02:33:48;98175.16;;;13.40;48.55
49973;BME280;65693;49.798;10.968;2023-05-01T02:36:14;98168.97;;;13.40;48.56
49973;BME280;65693;49.798;10.968;2023-05-01T02:38:40;98176.00;;;13.41;48.54
49973;BME280;65693;49.798;10.968;2023-05-01T02:41:09;98166.31;;;13.40;48.61
49973;BME280;65693;49.798;10.968;2023-05-01T02:43:37;98167.28;;;13.38;48.61
49973;BME280;65693;49.798;10.968;2023-05-01T02:46:07;98164.63;;;13.38;48.54
49973;BME280;65693;49.798;10.968;2023-05-01T02:48:36;98152.13;;;13.39;48.38
49973;BME280;65693;49.798;10.968;2023-05-01T02:51:03;98152.03;;;13.41;48.37
49973;BME280;65693;49.798;10.968;2023-05-01T02:53:31;98152.28;;;13.37;48.45
49973;BME280;65693;49.798;10.968;2023-05-01T02:55:58;98154.06;;;13.37;48.47
49973;BME280;65693;49.798;10.968;2023-05-01T02:58:29;98155.03;;;13.36;48.56
49973;BME280;65693;49.798;10.968;2023-05-01T03:00:56;98155.91;;;13.36;48.46
49973;BME280;65693;49.798;10.968;2023-05-01T03:03:22;98148.88;;;13.35;48.46
49973;BME280;65693;49.798;10.968;2023-05-01T03:05:49;98154.22;;;13.35;48.39
49973;BME280;65693;49.798;10.968;2023-05-01T03:08:15;98155.19;;;13.34;48.40
49973;BME280;65693;49.798;10.968;2023-05-01T03:10:42;98146.34;;;13.34;48.54
49973;BME280;65693;49.798;10.968;2023-05-01T03:13:09;98148.16;;;13.33;48.42
49973;BME280;65693;49.798;10.968;2023-05-01T03:15:37;98149.13;;;13.32;48.59
49973;BME280;65693;49.798;10.968;2023-05-01T03:18:03;98158.91;;;13.32;48.38
49973;BME280;65693;49.798;10.968;2023-05-01T03:20:30;98151.91;;;13.31;48.44
49973;BME280;65693;49.798;10.968;2023-05-01T03:22:56;98149.22;;;13.31;48.27
49973;BME280;65693;49.798;10.968;2023-05-01T03:25:23;98157.22;;;13.31;48.42
49973;BME280;65693;49.798;10.968;2023-05-01T03:27:49;98147.41;;;13.31;48.30
49973;BME280;65693;49.798;10.968;2023-05-01T03:30:16;98143.03;;;13.30;48.27
49973;BME280;65693;49.798;10.968;2023-05-01T03:32:44;98150.31;;;13.28;48.36
49973;BME280;65693;49.798;10.968;2023-05-01T03:35:10;98142.31;;;13.28;48.24
49973;BME280;65693;49.798;10.968;2023-05-01T03:37:37;98143.41;;;13.26;48.26
49973;BME280;65693;49.798;10.968;2023-05-01T03:40:04;98140.88;;;13.24;48.30
49973;BME280;65693;49.798;10.968;2023-05-01T03:42:30;98145.22;;;13.25;48.21
49973;BME280;65693;49.798;10.968;2023-05-01T03:44:57;98140.03;;;13.23;48.41
49973;BME280;65693;49.798;10.968;2023-05-01T03:47:23;98136.50;;;13.23;48.20
49973;BME280;65693;49.798;10.968;2023-05-01T03:49:51;98139.28;;;13.21;48.13
49973;BME280;65693;49.798;10.968;2023-05-01T03:52:17;98136.41;;;13.25;48.18
49973;BME280;65693;49.798;10.968;2023-05-01T03:54:44;98132.16;;;13.22;48.16
49973;BME280;65693;49.798;10.968;2023-05-01T03:57:10;98126.09;;;13.20;48.28
49973;BME280;65693;49.798;10.968;2023-05-01T03:59:37;98126.94;;;13.20;48.21
49973;BME280;65693;49.798;10.968;2023-05-01T04:02:03;98127.06;;;13.19;48.20
49973;BME280;65693;49.798;10.968;2023-05-01T04:04:30;98121.03;;;13.17;48.19
49973;BME280;65693;49.798;10.968;2023-05-01T04:06:58;98129.00;;;13.17;48.05
49973;BME280;65693;49.798;10.968;2023-05-01T04:09:25;98127.31;;;13.16;48.11
49973;BME280;65693;49.798;10.968;2023-05-01T04:11:54;98124.50;;;13.17;48.04
49973;BME280;65693;49.798;10.968;2023-05-01T04:14:20;98129.09;;;13.15;48.07
49973;BME280;65693;49.798;10.968;2023-05-01T04:16:47;98125.59;;;13.15;48.05
49973;BME280;65693;49.798;10.968;2023-05-01T04:19:13;98122.91;;;13.15;48.00
49973;BME280;65693;49.798;10.968;2023-05-01T04:21:40;98128.47;;;13.12;48.28
49973;BME280;65693;49.798;10.968;2023-05-01T04:24:08;98132.00;;;13.12;48.08
49973;BME280;65693;49.798;10.968;2023-05-01T04:26:34;98127.50;;;13.13;48.12
49973;BME280;65693;49.798;10.968;2023-05-01T04:29:01;98125.72;;;13.13;48.20
49973;BME280;65693;49.798;10.968;2023-05-01T04:31:27;98130.31;;;13.11;48.00
49973;BME280;65693;49.798;10.968;2023-05-01T04:33:54;98125.97;;;13.10;48.08
49973;BME280;65693;49.798;10.968;2023-05-01T04:36:20;98122.44;;;13.09;48.12
49973;BME280;65693;49.798;10.968;2023-05-01T04:38:47;98118.09;;;13.08;48.25
49973;BME280;65693;49.798;10.968;2023-05-01T04:41:15;98120.88;;;13.07;48.31
49973;BME280;65693;49.798;10.968;2023-05-01T04:43:41;98120.88;;;13.07;48.20
49973;BME280;65693;49.798;10.968;2023-05-01T04:46:08;98120.97;;;13.05;48.21
49973;BME280;65693;49.798;10.968;2023-05-01T04:48:34;98119.16;;;13.06;48.30
49973;BME280;65693;49.798;10.968;2023-05-01T04:51:01;98122.03;;;13.03;48.36
49973;BME280;65693;49.798;10.968;2023-05-01T04:53:28;98114.78;;;13.05;48.19
49973;BME280;65693;49.798;10.968;2023-05-01T04:55:55;98118.31;;;13.05;48.05
49973;BME280;65693;49.798;10.968;2023-05-01T04:58:22;98114.78;;;13.05;48.19
49973;BME280;65693;49.798;10.968;2023-05-01T05:00:49;98122.03;;;13.03;48.24
49973;BME280;65693;49.798;10.968;2023-05-01T05:03:15;98121.22;;;13.02;48.25
49973;BME280;65693;49.798;10.968;2023-05-01T05:05:43;98119.53;;;13.01;48.18
49973;BME280;65693;49.798;10.968;2023-05-01T05:08:09;98119.53;;;13.01;48.25
49973;BME280;65693;49.798;10.968;2023-05-01T05:10:36;98123.16;;;13.00;48.20
49973;BME280;65693;49.798;10.968;2023-05-01T05:13:02;98114.41;;;12.98;48.39
49973;BME280;65693;49.798;10.968;2023-05-01T05:15:30;98120.34;;;13.02;48.09
49973;BME280;65693;49.798;10.968;2023-05-01T05:17:56;98117.06;;;12.98;48.42
49973;BME280;65693;49.798;10.968;2023-05-01T05:20:23;98109.09;;;12.98;48.48
49973;BME280;65693;49.798;10.968;2023-05-01T05:22:50;98107.41;;;12.97;48.38
49973;BME280;65693;49.798;10.968;2023-05-01T05:25:16;98113.69;;;12.96;48.45
49973;BME280;65693;49.798;10.968;2023-05-01T05:27:43;98119.72;;;12.98;48.26
49973;BME280;65693;49.798;10.968;2023-05-01T05:30:10;98111.00;;;12.96;48.49
49973;BME280;65693;49.798;10.968;2023-05-01T05:32:38;98113.81;;;12.94;48.49
49973;BME280;65693;49.798;10.968;2023-05-01T05:35:05;98108.50;;;12.94;48.41
49973;BME280;65693;49.798;10.968;2023-05-01T05:37:31;98114.66;;;12.95;48.35
49973;BME280;65693;49.798;10.968;2023-05-01T05:39:58;98115.50;;;12.95;48.45
49973;BME280;65693;49.798;10.968;2023-05-01T05:42:25;98116.47;;;12.94;48.34
49973;BME280;65693;49.798;10.968;2023-05-01T05:44:51;98113.34;;;13.01;47.62
49973;BME280;65693;49.798;10.968;2023-05-01T05:47:18;98115.16;;;13.00;46.93
49973;BME280;65693;49.798;10.968;2023-05-01T05:49:46;98111.75;;;12.98;46.46
49973;BME280;65693;49.798;10.968;2023-05-01T05:52:12;98121.56;;;12.98;46.66
49973;BME280;65693;49.798;10.968;2023-05-01T05:54:39;98115.50;;;12.95;46.64
49973;BME280;65693;49.798;10.968;2023-05-01T05:57:05;98112.94;;;12.94;47.08
49973;BME280;65693;49.798;10.968;2023-05-01T05:59:32;98112.22;;;12.92;47.59
49973;BME280;65693;49.798;10.968;2023-05-01T06:01:58;98108.84;;;12.90;47.47
49973;BME280;65693;49.798;10.968;2023-05-01T06:04:24;98108.84;;;12.90;47.38
49973;BME280;65693;49.798;10.968;2023-05-01T06:06:52;98109.78;;;12.89;47.56
49973;BME280;65693;49.798;10.968;2023-05-01T06:09:19;98104.47;;;12.89;47.54
49973;BME280;65693;49.798;10.968;2023-05-01T06:11:45;98103.63;;;12.88;47.55
49973;BME280;65693;49.798;10.968;2023-05-01T06:14:12;98098.28;;;12.88;47.66
49973;BME280;65693;49.798;10.968;2023-05-01T06:16:38;98097.47;;;12.88;47.66
49973;BME280;65693;49.798;10.968;2023-05-01T06:19:05;98097.47;;;12.88;47.70
49973;BME280;65693;49.798;10.968;2023-05-01T06:21:32;98102.78;;;12.88;47.77
49973;BME280;65693;49.798;10.968;2023-05-01T06:24:00;98095.78;;;12.87;47.95
49973;BME280;65693;49.798;10.968;2023-05-01T06:26:27;98099.25;;;12.87;47.79
49973;BME280;65693;49.798;10.968;2023-05-01T06:28:53;98091.28;;;12.87;47.87
49973;BME280;65693;49.798;10.968;2023-05-01T06:31:19;98092.00;;;12.89;47.82
49973;BME280;65693;49.798;10.968;2023-05-01T06:33:46;98086.81;;;12.88;48.09
49973;BME280;65693;49.798;10.968;2023-05-01T06:36:13;98096.59;;;12.87;47.85
49973;BME280;65693;49.798;10.968;2023-05-01T06:38:39;98092.16;;;12.88;47.79
49973;BME280;65693;49.798;10.968;2023-05-01T06:41:10;98088.53;;;12.89;47.85
49973;BME280;65693;49.798;10.968;2023-05-01T06:43:36;98099.16;;;12.89;47.98
49973;BME280;65693;49.798;10.968;2023-05-01T06:46:03;98093.84;;;12.89;47.97
49973;BME280;65693;49.798;10.968;2023-05-01T06:48:30;98089.34;;;12.89;47.87
49973;BME280;65693;49.798;10.968;2023-05-01T06:50:56;98095.53;;;12.90;47.94
49973;BME280;65693;49.798;10.968;2023-05-01T06:53:23;98084.91;;;12.90;47.91
49973;BME280;65693;49.798;10.968;2023-05-01T06:55:49;98088.41;;;12.90;47.86
49973;BME280;65693;49.798;10.968;2023-05-01T06:58:17;98091.06;;;12.90;47.92
49973;BME280;65693;49.798;10.968;2023-05-01T07:00:43;98081.28;;;12.91;47.89
49973;BME280;65693;49.798;10.968;2023-05-01T07:03:10;98080.44;;;12.90;48.09
49973;BME280;65693;49.798;10.968;2023-05-01T07:05:37;98074.25;;;12.90;47.93
49973;BME280;65693;49.798;10.968;2023-05-01T07:08:04;98074.97;;;12.92;47.97
49973;BME280;65693;49.798;10.968;2023-05-01T07:10:30;98072.31;;;12.92;47.89
49973;BME280;65693;49.798;10.968;2023-05-01T07:12:58;98074.25;;;12.90;47.91
49973;BME280;65693;49.798;10.968;2023-05-01T07:15:26;98068.94;;;12.90;47.93
49973;BME280;65693;49.798;10.968;2023-05-01T07:17:52;98063.75;;;13.00;47.68
49973;BME280;65693;49.798;10.968;2023-05-01T07:20:20;98068.34;;;12.98;47.83
49973;BME280;65693;49.798;10.968;2023-05-01T07:22:46;98071.13;;;12.96;47.82
49973;BME280;65693;49.798;10.968;2023-05-01T07:25:13;98064.09;;;12.95;47.93
49973;BME280;65693;49.798;10.968;2023-05-01T07:27:39;98063.38;;;12.93;47.82
49973;BME280;65693;49.798;10.968;2023-05-01T07:30:07;98071.25;;;12.94;47.92
49973;BME280;65693;49.798;10.968;2023-05-01T07:32:35;98059.88;;;12.92;47.95
49973;BME280;65693;49.798;10.968;2023-05-01T07:35:02;98060.72;;;12.93;48.06
49973;BME280;65693;49.798;10.968;2023-05-01T07:37:28;98058.91;;;12.93;47.67
49973;BME280;65693;49.798;10.968;2023-05-01T07:39:55;98054.44;;;12.94;48.04
49973;BME280;65693;49.798;10.968;2023-05-01T07:42:22;98051.78;;;12.94;48.04
49973;BME280;65693;49.798;10.968;2023-05-01T07:44:49;98057.09;;;12.94;47.80
49973;BME280;65693;49.798;10.968;2023-05-01T07:47:15;98054.94;;;12.99;47.92
49973;BME280;65693;49.798;10.968;2023-05-01T07:49:43;98051.31;;;13.00;47.87
49973;BME280;65693;49.798;10.968;2023-05-01T07:52:09;98047.91;;;12.98;48.05
49973;BME280;65693;49.798;10.968;2023-05-01T07:54:36;98041.75;;;12.98;48.01
49973;BME280;65693;49.798;10.968;2023-05-01T07:57:04;98044.41;;;12.98;47.95
49973;BME280;65693;49.798;10.968;2023-05-01T07:59:31;98040.88;;;12.97;48.08
49973;BME280;65693;49.798;10.968;2023-05-01T08:01:57;98031.13;;;12.98;47.98
49973;BME280;65693;49.798;10.968;2023-05-01T08:04:24;98032.81;;;12.99;47.98
49973;BME280;65693;49.798;10.968;2023-05-01T08:06:51;98024.81;;;12.99;48.01
49973;BME280;65693;49.798;10.968;2023-05-01T08:09:18;98034.59;;;12.98;48.12
49973;BME280;65693;49.798;10.968;2023-05-01T08:11:44;98033.66;;;12.99;48.08
49973;BME280;65693;49.798;10.968;2023-05-01T08:14:11;98029.19;;;13.00;48.06
49973;BME280;65693;49.798;10.968;2023-05-01T08:16:37;98032.69;;;13.00;47.97
49973;BME280;65693;49.798;10.968;2023-05-01T08:19:03;98033.44;;;13.02;47.92
49973;BME280;65693;49.798;10.968;2023-05-01T08:21:30;98029.81;;;13.03;48.02
49973;BME280;65693;49.798;10.968;2023-05-01T08:23:58;98018.44;;;13.01;47.97
49973;BME280;65693;49.798;10.968;2023-05-01T08:26:24;98019.16;;;13.03;48.22
49973;BME280;65693;49.798;10.968;2023-05-01T08:28:51;98017.47;;;13.02;48.23
49973;BME280;65693;49.798;10.968;2023-05-01T08:31:17;98012.00;;;13.04;48.05
49973;BME280;65693;49.798;10.968;2023-05-01T08:33:45;98011.03;;;13.05;47.99
49973;BME280;65693;49.798;10.968;2023-05-01T08:36:11;98008.38;;;13.05;48.04
49973;BME280;65693;49.798;10.968;2023-05-01T08:38:38;98009.25;;;13.05;48.10
49973;BME280;65693;49.798;10.968;2023-05-01T08:41:06;98010.69;;;13.09;48.05
49973;BME280;65693;49.798;10.968;2023-05-01T08:43:33;98002.72;;;13.09;48.06
49973;BME280;65693;49.798;10.968;2023-05-01T08:46:00;98000.91;;;13.10;47.99
49973;BME280;65693;49.798;10.968;2023-05-01T08:48:27;98003.19;;;13.15;48.26
49973;BME280;65693;49.798;10.968;2023-05-01T08:50:55;98006.00;;;13.13;48.13
49973;BME280;65693;49.798;10.968;2023-05-01T08:53:24;97999.34;;;13.19;48.04
49973;BME280;65693;49.798;10.968;2023-05-01T08:55:53;98001.16;;;13.18;48.01
49973;BME280;65693;49.798;10.968;2023-05-01T08:58:23;98002.00;;;13.19;48.06
49973;BME280;65693;49.798;10.968;2023-05-01T09:00:51;98009.03;;;13.20;48.08
49973;BME280;65693;49.798;10.968;2023-05-01T09:03:21;98005.53;;;13.42;47.31
49973;BME280;65693;49.798;10.968;2023-05-01T09:05:48;97995.56;;;13.56;46.57
49973;BME280;65693;49.798;10.968;2023-05-01T09:08:14;98000.28;;;13.63;46.64
49973;BME280;65693;49.798;10.968;2023-05-01T09:10:44;97997.97;;;13.70;46.69
49973;BME280;65693;49.798;10.968;2023-05-01T09:13:13;97992.78;;;13.69;46.37
49973;BME280;65693;49.798;10.968;2023-05-01T09:15:41;97998.63;;;13.74;46.04
49973;BME280;65693;49.798;10.968;2023-05-01T09:18:08;97993.19;;;13.75;45.80
49973;BME280;65693;49.798;10.968;2023-05-01T09:20:35;97994.88;;;13.76;46.07
49973;BME280;65693;49.798;10.968;2023-05-01T09:23:02;97996.19;;;13.71;46.04
49973;BME280;65693;49.798;10.968;2023-05-01T09:25:29;97996.69;;;13.76;46.12
49973;BME280;65693;49.798;10.968;2023-05-01T09:27:55;97993.28;;;13.74;46.13
49973;BME280;65693;49.798;10.968;2023-05-01T09:30:29;97993.91;;;13.77;46.51
49973;BME280;65693;49.798;10.968;2023-05-01T09:33:04;97991.97;;;13.79;46.36
49973;BME280;65693;49.798;10.968;2023-05-01T09:35:31;97996.19;;;13.82;46.26
49973;BME280;65693;49.798;10.968;2023-05-01T09:37:58;97990.97;;;13.80;45.68
49973;BME280;65693;49.798;10.968;2023-05-01T09:40:26;97995.34;;;13.82;45.76
49973;BME280;65693;49.798;10.968;2023-05-01T09:42:53;97987.72;;;13.77;46.06
49973;BME280;65693;49.798;10.968;2023-05-01T09:45:20;97986.03;;;13.76;45.72
49973;BME280;65693;49.798;10.968;2023-05-01T09:47:47;97990.38;;;13.77;45.76
49973;BME280;65693;49.798;10.968;2023-05-01T09:50:29;97988.31;;;13.80;45.82
49973;BME280;65693;49.798;10.968;2023-05-01T09:52:56;97994.47;;;13.81;45.75
49973;BME280;65693;49.798;10.968;2023-05-01T09:55:23;97993.66;;;13.80;45.71
49973;BME280;65693;49.798;10.968;2023-05-01T09:57:49;97989.53;;;13.76;45.32
49973;BME280;65693;49.798;10.968;2023-05-01T10:00:17;97985.06;;;13.77;45.43
49973;BME280;65693;49.798;10.968;2023-05-01T10:02:46;97992.22;;;13.76;45.76
49973;BME280;65693;49.798;10.968;2023-05-01T10:05:14;97987.13;;;13.73;45.65
49973;BME280;65693;49.798;10.968;2023-05-01T10:07:54;97990.88;;;13.82;45.90
49973;BME280;65693;49.798;10.968;2023-05-01T10:10:21;97983.34;;;13.87;45.63
49973;BME280;65693;49.798;10.968;2023-05-01T10:12:48;97981.84;;;13.94;46.08
49973;BME280;65693;49.798;10.968;2023-05-01T10:15:15;97986.22;;;13.96;45.70
49973;BME280;65693;49.798;10.968;2023-05-01T10:17:43;97979.19;;;13.94;45.53
49973;BME280;65693;49.798;10.968;2023-05-01T10:20:11;97976.06;;;13.89;45.74
49973;BME280;65693;49.798;10.968;2023-05-01T10:22:38;97976.78;;;13.91;45.90
49973;BME280;65693;49.798;10.968;2023-05-01T10:25:09;97985.75;;;13.90;45.60
49973;BME280;65693;49.798;10.968;2023-05-01T10:27:37;97981.91;;;13.83;45.66
49973;BME280;65693;49.798;10.968;2023-05-01T10:30:05;97975.13;;;13.79;45.32
49973;BME280;65693;49.798;10.968;2023-05-01T10:32:31;97969.06;;;13.77;45.84
49973;BME280;65693;49.798;10.968;2023-05-01T10:35:00;97977.91;;;13.77;46.14
49973;BME280;65693;49.798;10.968;2023-05-01T10:37:31;97977.41;;;13.84;45.14
49973;BME280;65693;49.798;10.968;2023-05-01T10:39:59;97975.72;;;13.83;45.60
49973;BME280;65693;49.798;10.968;2023-05-01T10:42:27;97971.47;;;13.80;45.27
49973;BME280;65693;49.798;10.968;2023-05-01T10:47:55;97957.44;;;13.78;45.55
49973;BME280;65693;49.798;10.968;2023-05-01T10:50:21;97967.28;;;13.77;45.54
49973;BME280;65693;49.798;10.968;2023-05-01T10:53:15;97960.34;;;13.86;45.67
49973;BME280;65693;49.798;10.968;2023-05-01T10:55:43;97956.34;;;13.80;45.31
49973;BME280;65693;49.798;10.968;2023-05-01T10:58:12;97953.69;;;13.80;45.55
49973;BME280;65693;49.798;10.968;2023-05-01T11:00:38;97952.22;;;13.88;45.32
49973;BME280;65693;49.798;10.968;2023-05-01T11:03:33;97951.63;;;13.84;45.48
49973;BME280;65693;49.798;10.968;2023-05-01T11:06:06;97941.81;;;13.85;45.63
49973;BME280;65693;49.798;10.968;2023-05-01T11:08:34;97946.06;;;13.87;45.49
49973;BME280;65693;49.798;10.968;2023-05-01T11:14:03;97939.88;;;13.87;45.66
49973;BME280;65693;49.798;10.968;2023-05-01T11:16:39;97946.41;;;13.94;45.37
49973;BME280;65693;49.798;10.968;2023-05-01T11:19:07;97939.84;;;13.98;45.26
49973;BME280;65693;49.798;10.968;2023-05-01T11:21:35;97945.06;;;14.00;45.76
49973;BME280;65693;49.798;10.968;2023-05-01T11:24:03;97941.06;;;13.94;46.09
49973;BME280;65693;49.798;10.968;2023-05-01T11:26:29;97937.56;;;13.93;46.25
49973;BME280;65693;49.798;10.968;2023-05-01T11:28:58;97942.16;;;13.91;46.46
49973;BME280;65693;49.798;10.968;2023-05-01T11:31:26;97941.69;;;13.86;47.75
49973;BME280;65693;49.798;10.968;2023-05-01T11:33:55;97952.59;;;13.83;47.52
49973;BME280;65693;49.798;10.968;2023-05-01T11:36:22;97950.44;;;13.77;49.35
49973;BME280;65693;49.798;10.968;2023-05-01T11:38:49;97956.00;;;13.74;48.27
49973;BME280;65693;49.798;10.968;2023-05-01T11:41:18;97959.72;;;13.71;48.32
49973;BME280;65693;49.798;10.968;2023-05-01T11:43:49;97959.88;;;13.70;48.49
49973;BME280;65693;49.798;10.968;2023-05-01T11:46:22;97955.63;;;13.67;48.42
49973;BME280;65693;49.798;10.968;2023-05-01T11:48:50;97959.25;;;13.66;48.29
49973;BME280;65693;49.798;10.968;2023-05-01T11:51:17;97957.69;;;13.63;48.43
49973;BME280;65693;49.798;10.968;2023-05-01T11:53:57;97962.03;;;13.64;48.35
49973;BME280;65693;49.798;10.968;2023-05-01T11:56:23;97967.34;;;13.64;48.35
49973;BME280;65693;49.798;10.968;2023-05-01T11:58:50;97962.91;;;13.65;48.28
49973;BME280;65693;49.798;10.968;2023-05-01T12:01:17;97972.69;;;13.64;48.44
49973;BME280;65693;49.798;10.968;2023-05-01T12:03:43;97971.84;;;13.64;48.29
49973;BME280;65693;49.798;10.968;2023-05-01T12:06:12;97979.72;;;13.65;48.58
49973;BME280;65693;49.798;10.968;2023-05-01T12:08:43;97978.88;;;13.65;48.28
49973;BME280;65693;49.798;10.968;2023-05-01T12:11:11;97983.34;;;13.64;48.34
49973;BME280;65693;49.798;10.968;2023-05-01T12:13:39;97981.66;;;13.63;48.53
49973;BME280;65693;49.798;10.968;2023-05-01T12:16:06;97987.59;;;13.67;48.94
49973;BME280;65693;49.798;10.968;2023-05-01T12:18:33;97981.88;;;13.72;48.28
49973;BME280;65693;49.798;10.968;2023-05-01T12:21:00;97985.53;;;13.71;48.33
49973;BME280;65693;49.798;10.968;2023-05-01T12:23:33;97986.50;;;13.70;48.42
49973;BME280;65693;49.798;10.968;2023-05-01T12:26:01;97989.41;;;13.66;48.66
49973;BME280;65693;49.798;10.968;2023-05-01T12:28:29;97995.72;;;13.65;48.88
49973;BME280;65693;49.798;10.968;2023-05-01T12:31:00;97992.28;;;13.63;48.90
49973;BME280;65693;49.798;10.968;2023-05-01T12:33:28;97993.25;;;13.62;48.81
49973;BME280;65693;49.798;10.968;2023-05-01T12:36:07;97997.88;;;13.60;49.02
49973;BME280;65693;49.798;10.968;2023-05-01T12:38:36;97998.84;;;13.59;48.94
49973;BME280;65693;49.798;10.968;2023-05-01T12:41:03;97999.81;;;13.58;49.12
49973;BME280;65693;49.798;10.968;2023-05-01T12:43:33;97998.84;;;13.59;49.07
49973;BME280;65693;49.798;10.968;2023-05-01T12:46:01;98006.81;;;13.71;49.35
49973;BME280;65693;49.798;10.968;2023-05-01T12:48:28;98006.84;;;13.82;51.64
49973;BME280;65693;49.798;10.968;2023-05-01T12:50:55;98002.47;;;13.81;52.36
49973;BME280;65693;49.798;10.968;2023-05-01T12:53:22;98011.19;;;13.72;52.34
49973;BME280;65693;49.798;10.968;2023-05-01T12:55:51;98010.47;;;13.70;53.03
49973;BME280;65693;49.798;10.968;2023-05-01T12:58:18;98009.75;;;13.68;52.26
49973;BME280;65693;49.798;10.968;2023-05-01T13:00:46;98001.03;;;13.65;52.66